Time;durP1;ratioP1;P1;durP2;ratioP2;P2;SDS_P1;SDS_P2;PMS_P1;PMS_P2;Temp;Humidity;BMP_temperature;BMP_pressure;BME280_temperature;BME280_humidity;BME280_pressure;Samples;Min_cycle;Max_cycle;Signal;HPM_P1;HPM_P2
2021/12/30 00:00:31;;;;;;;17.73;6.03;;;10.00;98.40;;;;;;2092470;28;20036;-87
2021/12/30 00:01:33;;;;;;;19.08;6.63;;;10.00;98.40;;;;;;2086622;28;20132;-86
2021/12/30 00:02:34;;;;;;;17.00;7.03;;;10.00;98.40;;;;;;2078162;28;20437;-87
2021/12/30 00:03:35;;;;;;;19.65;7.50;;;10.00;98.40;;;;;;2068006;28;20065;-86
2021/12/30 00:04:35;;;;;;;15.13;6.50;;;10.00;98.40;;;;;;2084695;28;20037;-87
2021/12/30 00:05:36;;;;;;;16.40;6.97;;;10.00;98.40;;;;;;2084196;28;20040;-87
2021/12/30 00:06:41;;;;;;;22.08;7.53;;;10.00;98.40;;;;;;2077628;28;20065;-86
2021/12/30 00:07:43;;;;;;;18.27;7.72;;;9.90;98.40;;;;;;2089145;28;20115;-87
2021/12/30 00:08:44;;;;;;;14.98;7.45;;;10.00;98.40;;;;;;2097458;28;20056;-87
2021/12/30 00:09:45;;;;;;;18.27;7.25;;;10.00;98.40;;;;;;2097192;28;20040;-87
2021/12/30 00:10:46;;;;;;;20.30;7.53;;;9.90;98.40;;;;;;2073337;28;20484;-87
2021/12/30 00:11:47;;;;;;;19.80;8.05;;;10.00;98.40;;;;;;2069097;28;20484;-87
2021/12/30 00:12:50;;;;;;;16.80;7.80;;;10.00;98.40;;;;;;2095299;28;20039;-87
2021/12/30 00:13:51;;;;;;;18.98;7.93;;;10.00;98.40;;;;;;2098066;28;20028;-87
2021/12/30 00:14:52;;;;;;;18.63;8.05;;;10.00;98.40;;;;;;2097618;28;20612;-87
2021/12/30 00:15:52;;;;;;;16.15;8.20;;;10.00;98.40;;;;;;2098260;28;20128;-87
2021/12/30 00:16:53;;;;;;;20.60;8.50;;;9.90;98.40;;;;;;2092617;28;20043;-87
2021/12/30 00:17:54;;;;;;;20.00;8.27;;;10.00;98.40;;;;;;2088970;28;20108;-87
2021/12/30 00:18:55;;;;;;;17.65;8.05;;;10.00;98.40;;;;;;2089642;28;20064;-87
2021/12/30 00:19:56;;;;;;;19.77;8.38;;;10.00;98.40;;;;;;2080699;28;20036;-87
2021/12/30 00:20:56;;;;;;;20.27;8.85;;;10.00;98.40;;;;;;2080779;28;20149;-87
2021/12/30 00:21:57;;;;;;;21.92;8.75;;;10.00;98.40;;;;;;2089416;28;20099;-87
2021/12/30 00:23:01;;;;;;;16.95;8.07;;;10.00;98.40;;;;;;2097139;28;20501;-87
2021/12/30 00:24:02;;;;;;;17.67;9.00;;;10.00;98.40;;;;;;2096905;28;20082;-87
2021/12/30 00:25:04;;;;;;;19.60;8.90;;;10.00;98.40;;;;;;2097657;28;20040;-87
2021/12/30 00:26:06;;;;;;;18.23;8.80;;;10.00;98.40;;;;;;2097970;28;20169;-87
2021/12/30 00:27:07;;;;;;;18.45;9.07;;;10.00;98.40;;;;;;2098440;28;20132;-87
2021/12/30 00:28:14;;;;;;;16.67;8.95;;;10.10;98.40;;;;;;2088856;28;20403;-88
2021/12/30 00:29:14;;;;;;;19.05;8.77;;;10.10;98.40;;;;;;2087954;28;20081;-87
2021/12/30 00:30:15;;;;;;;19.60;9.20;;;10.00;98.30;;;;;;2091476;28;20547;-87
2021/12/30 00:31:16;;;;;;;23.30;9.73;;;10.00;98.30;;;;;;2098331;28;20182;-87
2021/12/30 00:32:17;;;;;;;19.23;9.57;;;10.10;98.30;;;;;;2096401;28;20102;-87
2021/12/30 00:33:18;;;;;;;18.20;9.30;;;10.10;98.30;;;;;;2089673;28;20037;-87
2021/12/30 00:34:19;;;;;;;19.95;8.85;;;10.10;98.30;;;;;;2097338;28;20543;-87
2021/12/30 00:35:20;;;;;;;19.13;9.13;;;10.10;98.30;;;;;;2097619;28;20037;-87
2021/12/30 00:36:20;;;;;;;24.10;9.40;;;10.10;98.30;;;;;;2089434;28;20029;-87
2021/12/30 00:37:21;;;;;;;21.00;9.25;;;10.20;98.30;;;;;;2095271;28;20041;-87
2021/12/30 00:38:22;;;;;;;23.38;10.00;;;10.20;98.30;;;;;;2095782;28;20025;-87
2021/12/30 00:39:22;;;;;;;19.20;8.95;;;10.20;98.30;;;;;;2095816;28;20537;-86
2021/12/30 00:40:23;;;;;;;18.33;9.27;;;10.20;98.30;;;;;;2097621;28;20060;-87
2021/12/30 00:41:24;;;;;;;18.52;9.25;;;10.20;98.30;;;;;;2095611;28;20074;-87
2021/12/30 00:42:24;;;;;;;19.90;9.45;;;10.20;98.30;;;;;;2087208;28;20045;-87
2021/12/30 00:43:25;;;;;;;23.75;9.93;;;10.20;98.30;;;;;;2089632;28;20096;-87
2021/12/30 00:44:26;;;;;;;19.10;9.38;;;10.20;98.30;;;;;;2089094;28;20029;-87
2021/12/30 00:45:31;;;;;;;20.27;9.68;;;10.20;98.30;;;;;;2089574;28;20063;-87
2021/12/30 00:46:31;;;;;;;19.50;9.02;;;10.30;98.30;;;;;;2089995;28;20553;-87
2021/12/30 00:47:32;;;;;;;18.25;9.65;;;10.30;98.30;;;;;;2083300;28;20128;-87
2021/12/30 00:48:33;;;;;;;21.63;9.65;;;10.30;98.30;;;;;;2066048;28;20493;-87
2021/12/30 00:49:34;;;;;;;23.10;9.52;;;10.30;98.30;;;;;;2073785;28;20499;-87
2021/12/30 00:50:37;;;;;;;17.95;9.55;;;10.30;98.30;;;;;;2082828;28;20029;-86
2021/12/30 00:51:38;;;;;;;20.73;9.48;;;10.30;98.30;;;;;;2087901;28;20037;-86
2021/12/30 00:52:38;;;;;;;20.80;8.90;;;10.30;98.30;;;;;;2081800;28;20573;-87
2021/12/30 00:53:41;;;;;;;19.65;9.23;;;10.40;98.30;;;;;;2081237;28;20483;-87
2021/12/30 00:54:41;;;;;;;17.85;9.23;;;10.40;98.20;;;;;;2089301;28;20048;-87
2021/12/30 00:55:42;;;;;;;19.25;9.43;;;10.40;98.20;;;;;;2099184;28;20128;-87
2021/12/30 00:56:43;;;;;;;18.25;9.25;;;10.40;98.20;;;;;;2098383;28;20102;-87
2021/12/30 00:57:44;;;;;;;19.77;9.00;;;10.40;98.20;;;;;;2092658;28;20090;-86
2021/12/30 00:58:45;;;;;;;15.90;8.32;;;10.40;98.20;;;;;;2085581;28;20103;-87
2021/12/30 00:59:45;;;;;;;17.00;8.20;;;10.40;98.20;;;;;;2081691;28;20491;-87
2021/12/30 01:00:47;;;;;;;16.38;8.77;;;10.40;98.20;;;;;;2088909;28;20503;-86
2021/12/30 01:01:48;;;;;;;21.88;8.85;;;10.40;98.20;;;;;;2100288;28;20090;-87
2021/12/30 01:02:50;;;;;;;19.38;9.05;;;10.40;98.20;;;;;;2100502;28;20579;-86
2021/12/30 01:03:51;;;;;;;15.75;8.32;;;10.40;98.20;;;;;;2100180;28;20043;-86
2021/12/30 01:04:52;;;;;;;19.92;8.70;;;10.40;98.20;;;;;;2092278;28;20035;-85
2021/12/30 01:05:52;;;;;;;20.30;8.60;;;10.50;98.20;;;;;;2086694;28;20048;-86
2021/12/30 01:06:53;;;;;;;18.25;8.40;;;10.50;98.20;;;;;;2081556;28;20045;-87
2021/12/30 01:07:54;;;;;;;18.02;7.72;;;10.50;98.20;;;;;;2097377;28;20040;-87
2021/12/30 01:08:56;;;;;;;20.27;8.32;;;10.50;98.20;;;;;;2092221;28;20044;-87
2021/12/30 01:09:57;;;;;;;14.82;7.53;;;10.50;98.20;;;;;;2089486;28;20068;-86
2021/12/30 01:10:58;;;;;;;17.98;7.70;;;10.50;98.20;;;;;;2072510;28;20038;-87
2021/12/30 01:11:59;;;;;;;21.17;8.13;;;10.50;98.20;;;;;;2075926;28;20044;-87
2021/12/30 01:13:05;;;;;;;17.33;8.25;;;10.50;98.20;;;;;;2093131;28;20032;-86
2021/12/30 01:14:27;;;;;;;19.17;7.63;;;10.50;98.20;;;;;;2097301;28;20035;-87
2021/12/30 01:15:45;;;;;;;18.40;7.45;;;10.60;98.20;;;;;;2097951;28;20028;-88
2021/12/30 01:16:51;;;;;;;16.20;6.75;;;10.50;98.10;;;;;;2076164;28;20064;-86
2021/12/30 01:18:10;;;;;;;15.35;6.70;;;10.50;98.10;;;;;;2077172;28;20486;-87
2021/12/30 01:20:30;;;;;;;16.20;6.60;;;10.60;98.20;;;;;;2096730;28;20079;-85
2021/12/30 01:21:33;;;;;;;18.58;6.90;;;10.60;98.10;;;;;;2089741;28;20087;-85
2021/12/30 01:22:34;;;;;;;18.30;7.53;;;10.60;98.10;;;;;;2088518;28;20481;-86
2021/12/30 01:23:36;;;;;;;16.52;6.38;;;10.60;98.10;;;;;;2094599;28;20036;-86
2021/12/30 01:24:37;;;;;;;18.25;5.55;;;10.60;98.10;;;;;;2097379;28;20040;-86
2021/12/30 01:25:37;;;;;;;18.02;6.20;;;10.60;98.10;;;;;;2089418;28;20101;-86
2021/12/30 01:26:38;;;;;;;17.25;5.93;;;10.70;98.10;;;;;;2092409;28;20606;-85
2021/12/30 01:27:40;;;;;;;21.10;6.60;;;10.60;98.10;;;;;;2089899;28;20396;-87
2021/12/30 01:28:41;;;;;;;15.02;6.30;;;10.60;98.10;;;;;;2092911;28;20120;-87
2021/12/30 01:29:42;;;;;;;21.17;6.45;;;10.70;98.40;;;;;;2103846;28;20036;-87
2021/12/30 01:30:43;;;;;;;16.85;5.63;;;10.70;98.10;;;;;;2087849;28;20033;-87
2021/12/30 01:31:44;;;;;;;19.05;5.97;;;10.70;98.10;;;;;;2088016;28;20043;-87
2021/12/30 01:32:45;;;;;;;17.25;5.38;;;10.70;98.10;;;;;;2097514;28;20032;-87
2021/12/30 01:33:47;;;;;;;16.52;5.25;;;10.70;98.10;;;;;;2097873;28;20047;-87
2021/12/30 01:34:48;;;;;;;18.23;5.55;;;10.70;98.10;;;;;;2098112;28;20041;-87
2021/12/30 01:35:49;;;;;;;15.65;5.50;;;10.70;98.10;;;;;;2097837;28;20063;-87
2021/12/30 01:36:50;;;;;;;20.52;6.07;;;10.70;98.10;;;;;;2100821;28;20138;-87
2021/12/30 01:37:50;;;;;;;18.65;5.13;;;10.80;98.10;;;;;;2102513;28;20036;-87
2021/12/30 01:38:52;;;;;;;14.35;4.70;;;10.80;98.10;;;;;;2094716;28;20063;-86
2021/12/30 01:39:53;;;;;;;17.15;5.43;;;10.80;98.10;;;;;;2096738;28;20082;-87
2021/12/30 01:40:57;;;;;;;13.13;5.13;;;10.80;98.10;;;;;;2091920;28;20056;-87
2021/12/30 01:41:59;;;;;;;11.88;5.00;;;10.80;98.10;;;;;;2093250;28;20048;-87
2021/12/30 01:42:59;;;;;;;16.00;5.18;;;10.80;98.10;;;;;;2089251;28;20067;-87
2021/12/30 01:44:00;;;;;;;11.85;4.65;;;10.80;98.10;;;;;;2082848;28;20412;-87
2021/12/30 01:45:04;;;;;;;14.70;5.00;;;10.80;98.10;;;;;;2075537;28;20129;-87
2021/12/30 01:46:07;;;;;;;13.85;4.80;;;10.80;98.10;;;;;;2089523;28;20114;-87
2021/12/30 01:47:08;;;;;;;18.25;5.35;;;10.80;98.10;;;;;;2090158;28;20064;-86
2021/12/30 01:48:09;;;;;;;19.35;5.50;;;10.80;98.10;;;;;;2090807;28;20495;-87
2021/12/30 01:49:12;;;;;;;17.65;5.90;;;10.80;98.10;;;;;;2094756;28;20044;-87
2021/12/30 01:50:13;;;;;;;15.35;5.30;;;10.90;98.10;;;;;;2094593;28;20040;-87
2021/12/30 01:51:14;;;;;;;15.30;5.32;;;10.90;98.10;;;;;;2095216;28;20086;-86
2021/12/30 01:52:14;;;;;;;17.23;6.00;;;10.90;98.10;;;;;;2078780;28;20045;-87
2021/12/30 01:53:15;;;;;;;18.13;5.97;;;10.90;98.10;;;;;;2077245;28;20048;-87
2021/12/30 01:54:16;;;;;;;16.08;5.30;;;10.90;98.10;;;;;;2085500;28;20025;-87
2021/12/30 01:55:18;;;;;;;16.88;5.78;;;10.90;98.00;;;;;;2090255;28;20047;-87
2021/12/30 01:56:18;;;;;;;18.33;6.53;;;10.90;98.00;;;;;;2090937;28;20040;-87
2021/12/30 01:57:19;;;;;;;18.95;5.85;;;10.90;98.00;;;;;;2087944;28;20048;-87
2021/12/30 01:58:20;;;;;;;19.67;6.40;;;10.90;98.00;;;;;;2072418;28;20121;-87
2021/12/30 01:59:23;;;;;;;19.13;6.85;;;10.90;98.00;;;;;;2080777;28;20120;-87
2021/12/30 02:00:26;;;;;;;17.40;6.38;;;10.90;98.00;;;;;;2098096;28;20487;-87
2021/12/30 02:01:26;;;;;;;20.02;6.20;;;11.00;98.00;;;;;;2090150;28;20045;-87
2021/12/30 02:02:27;;;;;;;19.58;6.95;;;11.00;98.00;;;;;;2079993;28;20042;-87
2021/12/30 02:03:28;;;;;;;19.77;6.82;;;11.00;98.00;;;;;;2071735;28;20428;-86
2021/12/30 02:04:30;;;;;;;15.73;6.68;;;11.00;98.00;;;;;;2080936;28;20051;-87
2021/12/30 02:05:30;;;;;;;16.90;6.65;;;11.00;98.00;;;;;;2088905;28;20033;-86
2021/12/30 02:06:31;;;;;;;16.15;6.55;;;11.00;98.00;;;;;;2088888;28;20499;-87
2021/12/30 02:07:32;;;;;;;23.10;6.40;;;11.00;98.00;;;;;;2099263;28;20086;-87
2021/12/30 02:08:33;;;;;;;17.05;6.43;;;11.00;98.00;;;;;;2096179;28;20033;-87
2021/12/30 02:09:33;;;;;;;19.38;6.28;;;11.00;98.00;;;;;;2080786;28;20377;-87
2021/12/30 02:10:35;;;;;;;15.15;6.20;;;11.00;98.00;;;;;;2089088;28;20047;-87
2021/12/30 02:11:36;;;;;;;14.55;5.95;;;11.00;98.00;;;;;;2088611;28;20049;-87
2021/12/30 02:12:38;;;;;;;16.73;6.53;;;11.00;98.00;;;;;;2081198;28;20044;-87
2021/12/30 02:13:39;;;;;;;19.00;6.72;;;11.00;98.00;;;;;;2080905;28;20522;-87
2021/12/30 02:14:40;;;;;;;17.48;6.82;;;11.00;98.00;;;;;;2095403;28;20044;-87
2021/12/30 02:15:41;;;;;;;17.98;7.15;;;11.00;98.00;;;;;;2097249;28;20508;-87
2021/12/30 02:16:43;;;;;;;17.90;6.93;;;11.00;98.00;;;;;;2088858;28;20056;-87
2021/12/30 02:17:48;;;;;;;17.70;7.00;;;11.00;98.00;;;;;;2088261;28;20025;-87
2021/12/30 02:18:51;;;;;;;20.48;6.93;;;11.00;98.00;;;;;;2089393;28;20306;-87
2021/12/30 02:19:57;;;;;;;21.63;7.18;;;11.00;98.00;;;;;;2095322;28;20390;-87
2021/12/30 02:21:00;;;;;;;16.63;7.57;;;11.10;98.00;;;;;;2096504;28;20029;-86
2021/12/30 02:22:02;;;;;;;21.27;7.03;;;11.10;98.10;;;;;;2097961;28;20043;-87
2021/12/30 02:23:03;;;;;;;15.68;7.20;;;11.00;98.00;;;;;;2087198;28;20076;-87
2021/12/30 02:24:05;;;;;;;20.95;7.40;;;11.00;98.00;;;;;;2087357;28;20040;-87
2021/12/30 02:25:06;;;;;;;18.77;7.40;;;11.10;98.10;;;;;;2096754;28;20033;-87
2021/12/30 02:26:13;;;;;;;19.23;7.40;;;11.10;98.00;;;;;;2094645;28;20403;-87
2021/12/30 02:27:14;;;;;;;19.63;8.10;;;11.10;98.10;;;;;;2095842;28;20044;-87
2021/12/30 02:28:18;;;;;;;18.50;8.18;;;11.10;98.10;;;;;;2072904;28;20590;-87
2021/12/30 02:29:19;;;;;;;20.13;7.90;;;11.10;98.00;;;;;;2086881;28;20135;-87
2021/12/30 02:30:19;;;;;;;19.88;7.80;;;11.10;98.00;;;;;;2097511;28;20559;-87
2021/12/30 02:31:25;;;;;;;21.05;7.88;;;11.10;98.00;;;;;;2081501;28;20041;-86
2021/12/30 02:32:26;;;;;;;20.00;7.72;;;11.10;98.00;;;;;;2081160;28;20091;-86
2021/12/30 02:33:27;;;;;;;18.90;7.43;;;11.10;98.00;;;;;;2081784;28;20131;-87
2021/12/30 02:34:28;;;;;;;19.73;7.88;;;11.10;98.00;;;;;;2073961;28;20065;-87
2021/12/30 02:35:29;;;;;;;18.02;7.95;;;11.10;98.30;;;;;;2081800;28;20030;-87
2021/12/30 02:36:33;;;;;;;22.80;8.30;;;11.10;98.00;;;;;;2100564;28;20033;-87
2021/12/30 02:37:34;;;;;;;17.23;7.68;;;11.10;98.00;;;;;;2106919;28;20512;-87
2021/12/30 02:38:36;;;;;;;20.55;8.40;;;11.10;98.00;;;;;;2095118;28;20103;-86
2021/12/30 02:39:36;;;;;;;19.13;7.55;;;11.10;98.00;;;;;;2090521;28;20079;-87
2021/12/30 02:40:40;;;;;;;21.27;7.82;;;11.10;98.00;;;;;;2082947;28;20131;-87
2021/12/30 02:41:41;;;;;;;15.23;7.80;;;11.10;98.30;;;;;;2076282;28;20121;-86
2021/12/30 02:42:42;;;;;;;22.13;8.18;;;11.10;98.00;;;;;;2089533;28;20037;-87
2021/12/30 02:43:44;;;;;;;19.23;7.57;;;11.10;98.00;;;;;;2089619;28;20546;-86
2021/12/30 02:44:44;;;;;;;19.38;8.00;;;11.10;98.00;;;;;;2087307;28;20033;-87
2021/12/30 02:45:46;;;;;;;22.50;8.43;;;11.10;98.30;;;;;;2098472;28;20082;-87
2021/12/30 02:46:50;;;;;;;17.58;7.78;;;11.10;98.00;;;;;;2091458;28;20036;-87
2021/12/30 02:47:51;;;;;;;19.52;8.70;;;11.10;98.00;;;;;;2092589;28;20434;-87
2021/12/30 02:48:52;;;;;;;20.10;7.88;;;11.10;98.00;;;;;;2077912;28;20042;-87
2021/12/30 02:49:53;;;;;;;17.90;7.85;;;11.10;98.00;;;;;;2073815;28;20026;-87
2021/12/30 02:50:56;;;;;;;19.42;8.90;;;11.10;98.00;;;;;;2084431;28;20500;-87
2021/12/30 02:51:57;;;;;;;21.73;8.35;;;11.10;98.10;;;;;;2097681;28;20067;-87
2021/12/30 02:52:58;;;;;;;22.27;8.38;;;11.10;98.10;;;;;;2093779;28;20036;-87
2021/12/30 02:53:59;;;;;;;17.15;8.00;;;11.10;98.10;;;;;;2097456;28;20075;-87
2021/12/30 02:54:59;;;;;;;22.10;8.38;;;11.10;98.10;;;;;;2098876;28;20445;-87
2021/12/30 02:56:01;;;;;;;17.88;8.77;;;11.10;98.10;;;;;;2098946;28;20037;-87
2021/12/30 02:57:02;;;;;;;20.38;8.07;;;11.10;98.10;;;;;;2094591;28;20028;-87
2021/12/30 02:58:02;;;;;;;18.73;7.88;;;11.10;98.10;;;;;;2095376;28;20167;-87
2021/12/30 02:59:04;;;;;;;20.23;7.88;;;11.10;98.10;;;;;;2098524;28;20056;-87
2021/12/30 03:00:07;;;;;;;22.08;8.50;;;11.10;98.10;;;;;;2098239;28;20029;-87
2021/12/30 03:01:15;;;;;;;20.73;8.10;;;11.20;98.10;;;;;;2097494;28;20032;-87
2021/12/30 03:02:15;;;;;;;20.55;8.30;;;11.10;98.10;;;;;;2094156;28;20047;-86
2021/12/30 03:03:21;;;;;;;25.13;8.38;;;11.10;98.10;;;;;;2095918;28;20488;-87
2021/12/30 03:04:22;;;;;;;17.80;7.90;;;11.20;98.10;;;;;;2098254;28;20071;-87
2021/12/30 03:05:24;;;;;;;19.33;8.20;;;11.10;98.10;;;;;;2075651;28;20474;-87
2021/12/30 03:06:25;;;;;;;22.48;8.18;;;11.10;98.10;;;;;;2078721;28;20034;-86
2021/12/30 03:07:25;;;;;;;19.83;7.43;;;11.20;98.10;;;;;;2086368;28;20072;-86
2021/12/30 03:08:27;;;;;;;18.75;7.90;;;11.10;98.10;;;;;;2081058;28;20033;-85
2021/12/30 03:09:28;;;;;;;18.45;7.60;;;11.20;98.10;;;;;;2081756;28;20044;-85
2021/12/30 03:10:29;;;;;;;16.75;7.28;;;11.10;98.10;;;;;;2090333;28;20131;-85
2021/12/30 03:11:30;;;;;;;18.15;8.05;;;11.10;98.20;;;;;;2098152;28;20036;-85
2021/12/30 03:12:30;;;;;;;20.45;7.88;;;11.10;98.10;;;;;;2091109;28;20029;-86
2021/12/30 03:13:32;;;;;;;18.45;7.80;;;11.10;98.10;;;;;;2092553;28;20060;-85
2021/12/30 03:14:39;;;;;;;24.67;8.48;;;11.20;98.10;;;;;;2091488;28;20058;-85
2021/12/30 03:15:41;;;;;;;18.92;7.88;;;11.20;98.10;;;;;;2098211;28;20504;-87
2021/12/30 03:16:42;;;;;;;20.92;7.75;;;11.20;98.10;;;;;;2104923;28;20032;-86
2021/12/30 03:17:43;;;;;;;17.80;7.85;;;11.10;98.10;;;;;;2095587;28;20132;-86
2021/12/30 03:18:46;;;;;;;14.50;7.15;;;11.20;98.10;;;;;;2092800;28;20033;-86
2021/12/30 03:19:47;;;;;;;18.98;8.15;;;11.20;98.10;;;;;;2102264;28;20041;-87
2021/12/30 03:20:48;;;;;;;16.20;7.50;;;11.20;98.10;;;;;;2102099;28;20487;-86
2021/12/30 03:21:49;;;;;;;18.30;7.72;;;11.20;98.10;;;;;;2101318;28;20059;-87
2021/12/30 03:22:50;;;;;;;15.15;7.20;;;11.20;98.10;;;;;;2106496;28;20028;-86
2021/12/30 03:23:53;;;;;;;17.13;7.68;;;11.20;98.10;;;;;;2102580;28;20131;-88
2021/12/30 03:24:54;;;;;;;15.32;7.65;;;11.20;98.10;;;;;;2099945;28;20036;-86
2021/12/30 03:25:55;;;;;;;17.75;7.85;;;11.10;98.10;;;;;;2094010;28;20047;-86
2021/12/30 03:26:55;;;;;;;20.88;7.82;;;11.20;98.10;;;;;;2097751;28;20036;-87
2021/12/30 03:27:56;;;;;;;18.80;8.00;;;11.20;98.10;;;;;;2087717;28;20380;-86
2021/12/30 03:28:57;;;;;;;20.42;8.70;;;11.20;98.10;;;;;;2081960;28;20452;-87
2021/12/30 03:29:57;;;;;;;18.67;7.70;;;11.20;98.10;;;;;;2080645;28;20034;-86
2021/12/30 03:30:58;;;;;;;19.55;7.90;;;11.10;98.10;;;;;;2074019;28;20393;-87
2021/12/30 03:31:59;;;;;;;18.90;8.00;;;11.20;98.10;;;;;;2081835;28;20038;-87
2021/12/30 03:33:00;;;;;;;19.38;8.75;;;11.20;98.10;;;;;;2077228;28;20066;-87
2021/12/30 03:34:00;;;;;;;17.05;8.27;;;11.20;98.10;;;;;;2084358;28;20041;-87
2021/12/30 03:35:02;;;;;;;16.50;7.82;;;11.10;98.10;;;;;;2086156;28;20442;-87
2021/12/30 03:36:05;;;;;;;14.55;8.00;;;11.20;98.10;;;;;;2098215;28;20135;-87
2021/12/30 03:37:06;;;;;;;15.68;8.20;;;11.20;98.10;;;;;;2098936;28;20126;-87
2021/12/30 03:38:07;;;;;;;17.50;7.72;;;11.10;98.10;;;;;;2096317;28;20131;-87
2021/12/30 03:39:08;;;;;;;17.15;8.13;;;11.20;98.10;;;;;;2097119;28;20728;-87
2021/12/30 03:40:13;;;;;;;20.40;8.55;;;11.20;98.10;;;;;;2092330;28;20029;-87
2021/12/30 03:41:17;;;;;;;16.83;7.90;;;11.20;98.10;;;;;;2097682;28;20029;-87
2021/12/30 03:42:17;;;;;;;17.38;8.20;;;11.20;98.10;;;;;;2098728;28;20048;-87
2021/12/30 03:43:18;;;;;;;19.55;8.35;;;11.20;98.20;;;;;;2082937;28;20041;-86
2021/12/30 03:44:19;;;;;;;17.75;8.15;;;11.20;98.20;;;;;;2073308;28;20045;-87
2021/12/30 03:45:21;;;;;;;17.77;8.20;;;11.20;98.10;;;;;;2073214;28;20063;-86
2021/12/30 03:46:22;;;;;;;16.90;8.18;;;11.20;98.20;;;;;;2087196;28;20021;-87
2021/12/30 03:47:23;;;;;;;16.63;8.13;;;11.20;98.20;;;;;;2102637;28;20540;-87
2021/12/30 03:48:31;;;;;;;21.02;8.38;;;11.20;98.10;;;;;;2097701;28;20410;-87
2021/12/30 03:49:32;;;;;;;16.83;8.07;;;11.20;98.10;;;;;;2084717;28;20042;-86
2021/12/30 03:50:33;;;;;;;16.42;9.05;;;11.20;98.10;;;;;;2072076;28;20053;-85
2021/12/30 03:51:38;;;;;;;16.88;8.50;;;11.10;98.10;;;;;;2076037;28;20041;-86
2021/12/30 03:52:39;;;;;;;17.88;8.48;;;11.20;98.10;;;;;;2090351;28;20498;-86
2021/12/30 03:53:42;;;;;;;20.50;9.15;;;11.20;98.40;;;;;;2093629;28;20091;-86
2021/12/30 03:54:43;;;;;;;23.73;9.32;;;11.10;98.10;;;;;;2098252;28;20067;-87
2021/12/30 03:55:46;;;;;;;24.70;8.85;;;11.20;98.20;;;;;;2097864;28;20532;-86
2021/12/30 03:56:47;;;;;;;17.23;8.75;;;11.20;98.10;;;;;;2086539;28;20487;-86
2021/12/30 03:57:48;;;;;;;16.85;8.95;;;11.20;98.20;;;;;;2079315;28;20386;-87
2021/12/30 03:58:50;;;;;;;17.92;9.35;;;11.20;98.10;;;;;;2076387;28;20394;-87
2021/12/30 03:59:50;;;;;;;18.52;9.55;;;11.20;98.10;;;;;;2069175;28;20042;-88
2021/12/30 04:00:51;;;;;;;19.33;9.57;;;11.20;98.20;;;;;;2094980;28;20111;-88
2021/12/30 04:01:52;;;;;;;20.30;8.98;;;11.20;98.10;;;;;;2089629;28;20140;-87
2021/12/30 04:02:53;;;;;;;20.42;9.30;;;11.20;98.20;;;;;;2089372;28;20039;-87
2021/12/30 04:03:54;;;;;;;22.90;9.85;;;11.20;98.20;;;;;;2100059;28;20043;-87
2021/12/30 04:04:55;;;;;;;18.10;9.32;;;11.20;98.20;;;;;;2087589;28;20029;-87
2021/12/30 04:05:56;;;;;;;20.15;9.80;;;11.20;98.10;;;;;;2080345;28;20037;-87
2021/12/30 04:06:57;;;;;;;20.10;9.77;;;11.20;98.20;;;;;;2084220;28;20430;-87
2021/12/30 04:07:57;;;;;;;18.80;9.25;;;11.20;98.10;;;;;;2094448;28;20063;-88
2021/12/30 04:08:59;;;;;;;16.38;9.23;;;11.20;98.10;;;;;;2096145;28;20025;-88
2021/12/30 04:10:00;;;;;;;18.73;8.15;;;11.20;98.20;;;;;;2095781;28;20037;-87
2021/12/30 04:11:00;;;;;;;15.88;8.98;;;11.20;98.20;;;;;;2095848;28;20049;-87
2021/12/30 04:12:01;;;;;;;16.70;9.10;;;11.20;98.20;;;;;;2088867;28;20037;-87
2021/12/30 04:13:02;;;;;;;17.13;9.18;;;11.20;98.20;;;;;;2080989;28;20026;-87
2021/12/30 04:14:04;;;;;;;16.10;9.15;;;11.20;98.20;;;;;;2096071;28;20501;-87
2021/12/30 04:15:05;;;;;;;19.15;9.10;;;11.20;98.20;;;;;;2104580;28;20028;-87
2021/12/30 04:16:06;;;;;;;17.05;9.20;;;11.20;98.20;;;;;;2107017;28;20059;-87
2021/12/30 04:17:07;;;;;;;20.35;10.10;;;11.20;98.20;;;;;;2091221;28;20544;-86
2021/12/30 04:18:07;;;;;;;21.98;10.45;;;11.20;98.20;;;;;;2088564;28;20060;-87
2021/12/30 04:19:08;;;;;;;20.80;9.35;;;11.20;98.20;;;;;;2086119;28;20033;-87
2021/12/30 04:20:11;;;;;;;19.75;9.43;;;11.20;98.20;;;;;;2096993;28;20040;-87
2021/12/30 04:21:11;;;;;;;21.33;9.73;;;11.20;98.20;;;;;;2095446;28;20033;-87
2021/12/30 04:22:14;;;;;;;19.70;9.85;;;11.20;98.20;;;;;;2080603;28;20049;-88
2021/12/30 04:23:15;;;;;;;23.35;10.18;;;11.30;98.20;;;;;;2066767;28;20519;-87
2021/12/30 04:24:16;;;;;;;22.60;10.80;;;11.30;98.20;;;;;;2084901;28;20043;-87
2021/12/30 04:25:17;;;;;;;18.27;10.35;;;11.30;98.20;;;;;;2085600;28;20308;-87
2021/12/30 04:26:17;;;;;;;21.02;10.60;;;11.30;98.20;;;;;;2074425;28;20057;-87
2021/12/30 04:27:18;;;;;;;20.83;10.10;;;11.30;98.30;;;;;;2073285;28;20488;-88
2021/12/30 04:28:19;;;;;;;22.67;9.55;;;11.30;98.30;;;;;;2072758;28;20519;-87
2021/12/30 04:29:21;;;;;;;19.08;9.77;;;11.30;98.20;;;;;;2081328;28;20048;-88
2021/12/30 04:30:21;;;;;;;19.27;9.88;;;11.30;98.20;;;;;;2110893;28;20030;-87
2021/12/30 04:31:23;;;;;;;17.30;9.38;;;11.30;98.20;;;;;;2096940;28;20051;-87
2021/12/30 04:32:23;;;;;;;16.77;9.00;;;11.30;98.20;;;;;;2088854;28;20032;-87
2021/12/30 04:33:25;;;;;;;18.35;9.02;;;11.40;98.20;;;;;;2089604;28;20562;-88
2021/12/30 04:34:25;;;;;;;20.70;9.48;;;11.40;98.20;;;;;;2089120;28;20041;-88
2021/12/30 04:35:26;;;;;;;20.88;9.25;;;11.40;98.20;;;;;;2081290;28;20366;-87
2021/12/30 04:36:26;;;;;;;17.95;9.00;;;11.40;98.20;;;;;;2094021;28;20060;-88
2021/12/30 04:37:27;;;;;;;16.88;8.80;;;11.40;98.20;;;;;;2090070;28;20039;-87
2021/12/30 04:38:30;;;;;;;15.95;8.75;;;11.40;98.20;;;;;;2091173;28;20033;-87
2021/12/30 04:39:31;;;;;;;17.13;9.27;;;11.40;98.20;;;;;;2089448;28;20037;-88
2021/12/30 04:40:32;;;;;;;19.52;9.23;;;11.40;98.20;;;;;;2091661;28;20049;-88
2021/12/30 04:41:32;;;;;;;16.30;9.13;;;11.40;98.20;;;;;;2096877;28;20100;-87
2021/12/30 04:42:33;;;;;;;21.42;9.55;;;11.40;98.20;;;;;;2091050;28;20461;-88
2021/12/30 04:43:34;;;;;;;16.13;9.57;;;11.40;98.30;;;;;;2097848;28;20452;-88
2021/12/30 04:44:35;;;;;;;14.57;8.93;;;11.40;98.30;;;;;;2104252;28;20449;-87
2021/12/30 04:45:36;;;;;;;15.82;9.25;;;11.40;98.30;;;;;;2097720;28;20037;-87
2021/12/30 04:46:37;;;;;;;17.13;8.88;;;11.40;98.20;;;;;;2089349;28;20037;-88
2021/12/30 04:47:40;;;;;;;21.50;9.68;;;11.40;98.20;;;;;;2081353;28;20041;-86
2021/12/30 04:48:40;;;;;;;16.58;8.55;;;11.40;98.30;;;;;;2089541;28;20036;-87
2021/12/30 04:49:42;;;;;;;16.63;9.10;;;11.40;98.30;;;;;;2089262;28;20055;-87
2021/12/30 04:50:45;;;;;;;16.48;8.45;;;11.40;98.30;;;;;;2089542;28;20518;-87
2021/12/30 04:51:46;;;;;;;16.90;8.32;;;11.40;98.20;;;;;;2098196;28;20111;-87
2021/12/30 04:52:46;;;;;;;17.27;8.23;;;11.40;98.20;;;;;;2093008;28;20127;-87
2021/12/30 04:53:48;;;;;;;13.65;8.73;;;11.40;98.20;;;;;;2092984;28;20028;-87
2021/12/30 04:54:49;;;;;;;16.30;8.70;;;11.40;98.20;;;;;;2088585;28;20044;-87
2021/12/30 04:55:50;;;;;;;13.77;8.30;;;11.40;98.30;;;;;;2084031;28;20055;-86
2021/12/30 04:56:51;;;;;;;15.90;8.25;;;11.40;98.30;;;;;;2095000;28;20040;-86
2021/12/30 04:57:51;;;;;;;18.45;8.95;;;11.40;98.30;;;;;;2094093;28;20036;-85
2021/12/30 04:58:52;;;;;;;18.77;8.73;;;11.50;98.30;;;;;;2086506;28;20041;-85
2021/12/30 04:59:53;;;;;;;14.85;8.13;;;11.50;98.30;;;;;;2096392;28;20069;-86
2021/12/30 05:00:54;;;;;;;17.98;9.13;;;11.50;98.30;;;;;;2098204;28;20036;-86
2021/12/30 05:01:55;;;;;;;16.00;9.05;;;11.50;98.30;;;;;;2099833;28;20060;-87
2021/12/30 05:03:15;;;;;;;16.63;8.65;;;11.50;98.30;;;;;;2095531;28;20569;-86
2021/12/30 05:04:16;;;;;;;13.35;7.93;;;11.50;98.30;;;;;;2089566;28;20048;-87
2021/12/30 05:05:17;;;;;;;12.88;7.55;;;11.50;98.30;;;;;;2095428;28;20506;-86
2021/12/30 05:06:17;;;;;;;13.18;8.20;;;11.60;98.20;;;;;;2088670;28;20033;-87
2021/12/30 05:07:18;;;;;;;16.00;7.65;;;11.60;98.20;;;;;;2097687;28;20041;-87
2021/12/30 05:08:22;;;;;;;11.60;7.25;;;11.60;98.20;;;;;;2080007;28;20731;-86
2021/12/30 05:09:22;;;;;;;11.60;7.40;;;11.60;98.20;;;;;;2088195;28;20080;-87
2021/12/30 05:10:23;;;;;;;12.48;7.07;;;11.50;98.20;;;;;;2097337;28;20051;-86
2021/12/30 05:11:24;;;;;;;14.77;7.13;;;11.60;98.20;;;;;;2085752;28;20065;-87
2021/12/30 05:12:25;;;;;;;13.57;7.55;;;11.60;98.20;;;;;;2089425;28;20132;-87
2021/12/30 05:13:26;;;;;;;12.50;7.13;;;11.60;98.20;;;;;;2081085;28;20128;-87
2021/12/30 05:14:26;;;;;;;13.73;7.30;;;11.60;98.20;;;;;;2080314;28;20029;-87
2021/12/30 05:15:27;;;;;;;12.32;6.70;;;11.60;98.20;;;;;;2089157;28;20033;-86
2021/12/30 05:16:28;;;;;;;10.95;6.68;;;11.60;98.20;;;;;;2094475;28;20032;-87
2021/12/30 05:17:30;;;;;;;9.82;6.10;;;11.60;98.20;;;;;;2081782;28;20038;-86